Rainbow, Texas
Current Conditions -  °F | °C
As of 2:55 AM on Saturday 22 Nov 2014 (Local Time) from KGDJ Reporting Station
Thunderstorm Thunderstorm  
Wind Chill: 65°   Ceiling: 1100
Heat Index: 65°   Visibility: 10mi
Dew Point: 63°   Wind: 9mph
Humidity: 91%   Direction: 110°ESE
Pressure: 30.04"   Gusts: NA
Location:  32.27°N, 97.7°W
Report Text: KGDJ 220855Z AUTO 11008KT 10SM VCTS BKN011 BKN018 OVC023 19/17 A3004 RMK AO2 LTG DSNT W THRU NE 60003 T01850170
Loading
Personal Weather Stations






























Interactive Weather Map New forecast layout! Learn more

10-Day Weather Forecast

Advertisements
Track Severe Weather on mobile